Continental Divide, New Mexico
Current Conditions -  °F | °C
As of 8:53 AM on Thursday 27 Nov 2014 (Local Time) from KGUP Reporting Station
Clear Clear  
Wind Chill: 30°   Ceiling: Unl
Heat Index: 30°   Visibility: 10mi
Dew Point: 15°   Wind: 0mph
Humidity: 54%   Direction: NA
Pressure: 30.53"   Gusts: NA
Location:  35.42°N, 108.31°W
Report Text: KGUP 271553Z AUTO 00000KT 10SM CLR M01/M09 A3053 RMK AO2 SLP373 T10111094
Loading
Personal Weather Stations






























Interactive Weather Map New forecast layout! Learn more

10-Day Weather Forecast

Advertisements
Track Severe Weather on mobile